createdAt,value
2023-04-30T00:02:22.530Z,14.30
2023-04-30T00:04:49.553Z,14.30
2023-04-30T00:07:16.435Z,14.30
2023-04-30T00:09:43.337Z,14.30
2023-04-30T00:12:10.255Z,14.30
2023-04-30T00:14:37.185Z,14.30
2023-04-30T00:17:04.095Z,14.30
2023-04-30T00:19:31.040Z,14.20
2023-04-30T00:21:58.080Z,14.20
2023-04-30T00:24:24.992Z,14.20
2023-04-30T00:26:51.926Z,14.20
2023-04-30T00:29:18.964Z,14.20
2023-04-30T00:31:46.172Z,14.20
2023-04-30T00:34:13.127Z,14.20
2023-04-30T00:36:40.661Z,14.20
2023-04-30T00:39:07.806Z,14.20
2023-04-30T00:41:38.633Z,14.20
2023-04-30T00:44:06.621Z,14.20
2023-04-30T00:46:33.544Z,14.10
2023-04-30T00:49:04.906Z,14.10
2023-04-30T00:51:33.206Z,14.10
2023-04-30T00:54:05.676Z,14.10
2023-04-30T00:56:33.601Z,14.10
2023-04-30T00:59:01.296Z,14.00
2023-04-30T01:01:31.989Z,14.00
2023-04-30T01:03:59.339Z,14.00
2023-04-30T01:06:27.078Z,14.00
2023-04-30T01:08:54.432Z,14.00
2023-04-30T01:12:03.536Z,13.90
2023-04-30T01:15:07.493Z,13.90
2023-04-30T01:17:57.132Z,13.90
2023-04-30T01:20:26.589Z,13.80
2023-04-30T01:23:26.719Z,13.80
2023-04-30T01:26:30.716Z,13.90
2023-04-30T01:29:00.179Z,13.90
2023-04-30T01:31:29.003Z,14.00
2023-04-30T01:33:55.998Z,14.00
2023-04-30T01:36:25.636Z,14.00
2023-04-30T01:39:19.894Z,14.10
2023-04-30T01:42:06.675Z,14.10
2023-04-30T01:45:04.521Z,14.10
2023-04-30T01:47:48.648Z,14.20
2023-04-30T01:50:36.673Z,14.20
2023-04-30T01:53:10.572Z,14.20
2023-04-30T01:55:46.889Z,14.20
2023-04-30T01:58:15.802Z,14.20
2023-04-30T02:00:42.872Z,14.10
2023-04-30T02:03:09.953Z,14.10
2023-04-30T02:05:37.129Z,14.10
2023-04-30T02:08:04.329Z,14.10
2023-04-30T02:10:31.271Z,14.10
2023-04-30T02:12:58.235Z,14.20
2023-04-30T02:15:25.239Z,14.20
2023-04-30T02:17:52.306Z,14.20
2023-04-30T02:20:19.376Z,14.20
2023-04-30T02:22:46.324Z,14.10
2023-04-30T02:25:14.187Z,14.10
2023-04-30T02:27:41.284Z,14.10
2023-04-30T02:30:10.211Z,14.10
2023-04-30T02:32:37.230Z,14.10
2023-04-30T02:35:04.460Z,14.00
2023-04-30T02:37:31.376Z,14.00
2023-04-30T02:39:58.557Z,14.10
2023-04-30T02:42:25.961Z,14.00
2023-04-30T02:44:52.886Z,14.00
2023-04-30T02:47:19.824Z,14.00
2023-04-30T02:49:46.856Z,14.00
2023-04-30T02:52:13.861Z,14.00
2023-04-30T02:54:40.783Z,14.00
2023-04-30T02:57:07.749Z,14.00
2023-04-30T02:59:34.687Z,14.00
2023-04-30T03:02:01.764Z,14.00
2023-04-30T03:04:28.737Z,14.10
2023-04-30T03:06:55.729Z,14.10
2023-04-30T03:09:22.684Z,14.10
2023-04-30T03:11:49.754Z,14.10
2023-04-30T03:14:16.714Z,14.10
2023-04-30T03:16:43.786Z,14.10
2023-04-30T03:19:12.266Z,14.00
2023-04-30T03:21:39.544Z,14.10
2023-04-30T03:24:06.764Z,14.00
2023-04-30T03:26:33.762Z,14.00
2023-04-30T03:29:02.099Z,14.00
2023-04-30T03:31:29.253Z,14.00
2023-04-30T03:33:56.253Z,14.00
2023-04-30T03:36:23.202Z,14.00
2023-04-30T03:38:50.306Z,14.00
2023-04-30T03:41:17.259Z,14.00
2023-04-30T03:43:44.268Z,14.00
2023-04-30T03:46:11.267Z,14.00
2023-04-30T03:48:38.296Z,14.10
2023-04-30T03:51:05.322Z,14.10
2023-04-30T03:53:32.241Z,14.20
2023-04-30T03:55:59.608Z,14.30
2023-04-30T03:58:27.135Z,14.40
2023-04-30T04:00:54.372Z,14.50
2023-04-30T04:03:23.195Z,14.50
2023-04-30T04:05:50.285Z,14.50
2023-04-30T04:08:17.927Z,14.50
2023-04-30T04:10:44.978Z,14.50
2023-04-30T04:13:12.117Z,14.50
2023-04-30T04:15:39.140Z,14.50
2023-04-30T04:18:08.498Z,14.50
2023-04-30T04:20:35.875Z,14.50
2023-04-30T04:23:03.175Z,14.50
2023-04-30T04:25:30.164Z,14.50
2023-04-30T04:27:57.138Z,14.50
2023-04-30T04:30:24.737Z,14.60
2023-04-30T04:32:51.904Z,14.60
2023-04-30T04:35:19.418Z,14.60
2023-04-30T04:37:46.444Z,14.60
2023-04-30T04:40:13.813Z,14.70
2023-04-30T04:42:42.138Z,14.80
2023-04-30T04:45:10.020Z,14.80
2023-04-30T04:47:37.834Z,14.80
2023-04-30T04:50:05.186Z,14.90
2023-04-30T04:52:32.143Z,14.90
2023-04-30T04:54:59.082Z,15.00
2023-04-30T04:57:26.225Z,15.10
2023-04-30T04:59:53.912Z,15.10
2023-04-30T05:02:23.479Z,15.10
2023-04-30T05:04:51.597Z,15.20
2023-04-30T05:07:19.417Z,15.20
2023-04-30T05:09:47.231Z,15.30
2023-04-30T05:12:15.140Z,15.30
2023-04-30T05:14:43.181Z,15.40
2023-04-30T05:17:10.301Z,15.40
2023-04-30T05:19:37.201Z,15.40
2023-04-30T05:22:04.321Z,15.50
2023-04-30T05:24:31.305Z,15.50
2023-04-30T05:26:58.272Z,15.50
2023-04-30T05:29:25.281Z,15.50
2023-04-30T05:31:52.302Z,15.60
2023-04-30T05:34:19.291Z,15.60
2023-04-30T05:36:46.259Z,15.60
2023-04-30T05:39:13.159Z,15.60
2023-04-30T05:41:40.079Z,15.70
2023-04-30T05:44:07.161Z,15.60
2023-04-30T05:46:35.517Z,15.70
2023-04-30T05:49:02.765Z,15.80
2023-04-30T05:51:29.752Z,15.90
2023-04-30T05:53:57.605Z,16.00
2023-04-30T05:56:25.109Z,16.10
2023-04-30T05:58:52.713Z,16.20
2023-04-30T06:01:21.099Z,16.30
2023-04-30T06:03:48.028Z,16.40
2023-04-30T06:06:15.014Z,16.40
2023-04-30T06:08:45.649Z,16.50
2023-04-30T06:11:13.656Z,16.50
2023-04-30T06:13:40.962Z,16.50
2023-04-30T06:16:08.524Z,16.60
2023-04-30T06:18:36.529Z,16.60
2023-04-30T06:21:03.627Z,16.60
2023-04-30T06:23:30.634Z,16.60
2023-04-30T06:25:57.576Z,16.70
2023-04-30T06:28:24.573Z,16.70
2023-04-30T06:30:52.127Z,16.70
2023-04-30T06:33:19.089Z,16.70
2023-04-30T06:35:46.306Z,16.70
2023-04-30T06:38:13.865Z,16.70
2023-04-30T06:40:41.745Z,16.70
2023-04-30T06:43:08.708Z,16.60
2023-04-30T06:45:35.782Z,16.60
2023-04-30T06:48:02.764Z,16.70
2023-04-30T06:50:29.738Z,16.70
2023-04-30T06:52:56.832Z,16.70
2023-04-30T06:55:24.487Z,16.70
2023-04-30T06:57:51.454Z,16.80
2023-04-30T07:00:18.532Z,16.80
2023-04-30T07:02:47.914Z,16.80
2023-04-30T07:05:16.267Z,16.80
2023-04-30T07:07:43.354Z,16.80
2023-04-30T07:10:10.636Z,16.90
2023-04-30T07:12:38.145Z,16.90
2023-04-30T07:15:05.632Z,17.00
2023-04-30T07:17:32.624Z,17.00
2023-04-30T07:19:59.595Z,17.10
2023-04-30T07:22:27.904Z,17.30
2023-04-30T07:24:55.201Z,17.40
2023-04-30T07:27:22.150Z,17.60
2023-04-30T07:29:49.348Z,17.70
2023-04-30T07:32:16.539Z,18.00
2023-04-30T07:34:43.593Z,18.20
2023-04-30T07:37:10.598Z,18.50
2023-04-30T07:39:38.228Z,18.70
2023-04-30T07:42:05.518Z,19.10
2023-04-30T07:44:32.805Z,19.40
2023-04-30T07:46:59.749Z,19.70
2023-04-30T07:49:26.865Z,19.80
2023-04-30T07:51:53.870Z,19.90
2023-04-30T07:54:21.155Z,19.90
2023-04-30T07:56:49.022Z,19.80
2023-04-30T07:59:16.142Z,19.60
2023-04-30T08:01:43.123Z,19.50
2023-04-30T08:04:10.177Z,19.40
2023-04-30T08:06:37.426Z,19.50
2023-04-30T08:09:04.762Z,19.50
2023-04-30T08:11:31.734Z,19.70
2023-04-30T08:13:58.747Z,19.80
2023-04-30T08:16:25.688Z,20.00
2023-04-30T08:18:52.563Z,20.30
2023-04-30T08:21:19.433Z,20.80
2023-04-30T08:23:46.421Z,21.20
2023-04-30T08:26:13.249Z,21.20
2023-04-30T08:28:40.135Z,21.00
2023-04-30T08:31:07.168Z,20.80
2023-04-30T08:33:34.182Z,20.70
2023-04-30T08:36:01.198Z,20.70
2023-04-30T08:38:28.829Z,20.80
2023-04-30T08:41:16.313Z,20.70
2023-04-30T08:43:45.199Z,20.80
2023-04-30T08:46:17.876Z,21.00
2023-04-30T08:48:45.480Z,21.40
2023-04-30T08:51:12.539Z,22.10
2023-04-30T08:53:41.595Z,23.60
2023-04-30T08:56:11.351Z,25.00
2023-04-30T08:58:38.247Z,26.30
2023-04-30T09:01:06.766Z,27.10
2023-04-30T09:03:33.839Z,27.80
2023-04-30T09:06:00.853Z,28.80
2023-04-30T09:08:43.793Z,29.30
2023-04-30T09:11:21.838Z,30.00
2023-04-30T09:13:50.051Z,30.10
2023-04-30T09:16:17.003Z,30.30
2023-04-30T09:18:43.870Z,29.90
2023-04-30T09:21:10.984Z,29.90
2023-04-30T09:23:44.105Z,29.40
2023-04-30T09:26:20.189Z,28.30
2023-04-30T09:28:56.496Z,27.20
2023-04-30T09:31:23.425Z,26.30
2023-04-30T09:33:50.703Z,25.50
2023-04-30T09:36:17.947Z,25.10
2023-04-30T09:38:45.878Z,25.50
2023-04-30T09:41:22.177Z,26.20
2023-04-30T09:43:49.025Z,26.40
2023-04-30T09:46:18.552Z,26.40
2023-04-30T09:48:45.767Z,26.30
2023-04-30T09:51:12.628Z,25.90
2023-04-30T09:53:41.034Z,25.60
2023-04-30T09:56:08.281Z,25.60
2023-04-30T09:58:37.237Z,25.50
2023-04-30T10:01:08.121Z,25.30
2023-04-30T10:03:35.577Z,25.10
2023-04-30T10:06:03.601Z,25.10
2023-04-30T10:08:31.955Z,25.20
2023-04-30T10:11:01.144Z,25.20
2023-04-30T10:13:48.226Z,25.20
2023-04-30T10:16:33.899Z,25.30
2023-04-30T10:19:05.682Z,25.60
2023-04-30T10:21:32.677Z,25.90
2023-04-30T10:23:59.911Z,26.10
2023-04-30T10:26:28.489Z,27.10
2023-04-30T10:28:59.072Z,28.80
2023-04-30T10:31:26.250Z,29.30
2023-04-30T10:33:59.001Z,28.90
2023-04-30T10:36:33.896Z,28.50
2023-04-30T10:39:01.498Z,28.10
2023-04-30T10:41:29.524Z,27.80
2023-04-30T10:44:02.086Z,27.70
2023-04-30T10:46:29.359Z,27.70
2023-04-30T10:48:56.362Z,27.50
2023-04-30T10:51:23.304Z,27.50
2023-04-30T10:53:54.315Z,27.60
2023-04-30T10:56:34.729Z,27.60
2023-04-30T10:59:02.653Z,28.10
2023-04-30T11:01:31.108Z,28.70
2023-04-30T11:04:08.430Z,29.10
2023-04-30T11:06:50.834Z,29.50
2023-04-30T11:09:17.987Z,29.70
2023-04-30T11:11:45.736Z,29.60
2023-04-30T11:14:12.851Z,29.20
2023-04-30T11:16:39.739Z,28.80
2023-04-30T11:19:09.506Z,28.50
2023-04-30T11:21:56.676Z,28.10
2023-04-30T11:24:43.554Z,27.70
2023-04-30T11:27:12.894Z,27.40
2023-04-30T11:29:40.246Z,27.20
2023-04-30T11:32:07.857Z,27.10
2023-04-30T11:34:34.860Z,27.00
2023-04-30T11:37:02.001Z,26.90
2023-04-30T11:39:29.767Z,26.60
2023-04-30T11:41:57.474Z,26.30
2023-04-30T11:44:27.546Z,26.40
2023-04-30T11:46:54.821Z,26.60
2023-04-30T11:49:21.842Z,26.50
2023-04-30T11:51:49.669Z,26.60
2023-04-30T11:54:16.668Z,26.90
2023-04-30T11:56:48.473Z,27.20
2023-04-30T11:59:16.102Z,27.50
2023-04-30T12:01:43.634Z,27.70
2023-04-30T12:04:11.177Z,27.70
2023-04-30T12:06:38.286Z,27.60
2023-04-30T12:09:07.311Z,27.30
2023-04-30T12:11:34.624Z,27.20
2023-04-30T12:14:05.590Z,27.20
2023-04-30T12:16:46.044Z,27.40
2023-04-30T12:19:13.024Z,27.40
2023-04-30T12:21:41.344Z,27.10
2023-04-30T12:24:08.399Z,27.00
2023-04-30T12:26:39.971Z,27.10
2023-04-30T12:29:12.682Z,27.00
2023-04-30T12:31:42.342Z,26.90
2023-04-30T12:34:11.277Z,27.10
2023-04-30T12:36:41.359Z,27.00
2023-04-30T12:39:11.271Z,26.80
2023-04-30T12:41:42.180Z,26.60
2023-04-30T12:44:22.771Z,26.50
2023-04-30T12:46:50.472Z,26.60
2023-04-30T12:49:24.183Z,26.30
2023-04-30T12:51:51.213Z,26.10
2023-04-30T12:54:24.986Z,26.10
2023-04-30T12:56:59.284Z,25.40
2023-04-30T12:59:26.177Z,24.60
2023-04-30T13:01:54.737Z,24.10
2023-04-30T13:04:21.650Z,24.00
2023-04-30T13:06:49.584Z,23.80
2023-04-30T13:09:16.529Z,23.80
2023-04-30T13:11:43.412Z,23.80
2023-04-30T13:14:11.305Z,24.00
2023-04-30T13:16:40.020Z,24.00
2023-04-30T13:19:07.225Z,24.10
2023-04-30T13:21:34.114Z,24.20
2023-04-30T13:24:01.625Z,24.10
2023-04-30T13:26:28.612Z,24.10
2023-04-30T13:28:55.597Z,24.00
2023-04-30T13:31:22.622Z,23.90
2023-04-30T13:33:49.754Z,23.90
2023-04-30T13:36:16.825Z,23.70
2023-04-30T13:38:43.765Z,23.50
2023-04-30T13:41:10.597Z,23.50
2023-04-30T13:43:40.659Z,23.40
2023-04-30T13:46:09.004Z,23.30
2023-04-30T13:48:35.905Z,23.30
2023-04-30T13:51:03.593Z,23.20
2023-04-30T13:53:30.407Z,23.10
2023-04-30T13:55:59.346Z,23.00
2023-04-30T13:58:26.383Z,22.90
2023-04-30T14:00:53.221Z,22.70
2023-04-30T14:03:20.312Z,22.50
2023-04-30T14:05:47.644Z,22.20
2023-04-30T14:08:14.457Z,22.00
2023-04-30T14:10:41.310Z,21.90
2023-04-30T14:13:08.120Z,22.10
2023-04-30T14:15:35.571Z,22.30
2023-04-30T14:18:02.476Z,22.30
2023-04-30T14:20:29.324Z,22.10
2023-04-30T14:22:56.198Z,22.00
2023-04-30T14:25:24.052Z,22.00
2023-04-30T14:27:50.954Z,22.10
2023-04-30T14:30:17.761Z,22.20
2023-04-30T14:32:44.648Z,22.30
2023-04-30T14:35:11.495Z,22.40
2023-04-30T14:37:38.446Z,22.50
2023-04-30T14:40:08.029Z,22.60
2023-04-30T14:42:35.164Z,22.70
2023-04-30T14:45:02.057Z,22.80
2023-04-30T14:47:29.353Z,22.90
2023-04-30T14:49:58.926Z,22.90
2023-04-30T14:52:25.915Z,23.00
2023-04-30T14:54:52.739Z,23.10
2023-04-30T14:57:19.711Z,23.30
2023-04-30T14:59:46.662Z,23.40
2023-04-30T15:02:13.667Z,23.50
2023-04-30T15:04:41.336Z,23.50
2023-04-30T15:07:08.296Z,23.40
2023-04-30T15:09:35.389Z,23.30
2023-04-30T15:12:02.288Z,23.20
2023-04-30T15:14:29.127Z,23.20
2023-04-30T15:16:56.528Z,23.10
2023-04-30T15:19:24.138Z,23.00
2023-04-30T15:21:51.267Z,23.00
2023-04-30T15:24:18.973Z,22.90
2023-04-30T15:26:45.906Z,22.90
2023-04-30T15:29:12.985Z,22.80
2023-04-30T15:31:39.809Z,22.60
2023-04-30T15:34:06.917Z,22.50
2023-04-30T15:36:33.744Z,22.30
2023-04-30T15:39:01.035Z,22.20
2023-04-30T15:41:27.905Z,22.10
2023-04-30T15:43:54.909Z,22.10
2023-04-30T15:46:21.833Z,22.00
2023-04-30T15:48:49.724Z,21.90
2023-04-30T15:51:16.500Z,21.90
2023-04-30T15:53:43.648Z,21.80
2023-04-30T15:56:11.020Z,21.80
2023-04-30T15:58:38.314Z,21.80
2023-04-30T16:01:05.658Z,21.70
2023-04-30T16:03:32.778Z,21.70
2023-04-30T16:06:01.102Z,21.70
2023-04-30T16:08:28.542Z,21.60
2023-04-30T16:10:55.675Z,21.50
2023-04-30T16:13:22.537Z,21.40
2023-04-30T16:15:49.697Z,21.40
2023-04-30T16:18:16.944Z,21.30
2023-04-30T16:20:46.524Z,21.20
2023-04-30T16:23:13.345Z,21.20
2023-04-30T16:25:40.775Z,21.20
2023-04-30T16:28:07.646Z,21.20
2023-04-30T16:30:34.669Z,21.20
2023-04-30T16:33:01.498Z,21.20
2023-04-30T16:35:28.491Z,21.20
2023-04-30T16:37:55.434Z,21.10
2023-04-30T16:40:22.304Z,21.10
2023-04-30T16:42:50.265Z,21.10
2023-04-30T16:45:17.528Z,21.10
2023-04-30T16:47:45.008Z,21.00
2023-04-30T16:50:12.024Z,21.00
2023-04-30T16:52:38.940Z,20.90
2023-04-30T16:55:06.054Z,20.90
2023-04-30T16:57:33.210Z,20.90
2023-04-30T17:00:00.331Z,20.90
2023-04-30T17:02:27.459Z,20.90
2023-04-30T17:04:54.925Z,20.90
2023-04-30T17:07:21.741Z,20.90
2023-04-30T17:09:49.198Z,20.90
2023-04-30T17:12:16.156Z,20.80
2023-04-30T17:14:43.313Z,20.80
2023-04-30T17:17:10.132Z,20.80
2023-04-30T17:19:37.122Z,20.70
2023-04-30T17:22:03.995Z,20.70
2023-04-30T17:24:31.016Z,20.60
2023-04-30T17:26:59.810Z,20.60
2023-04-30T17:29:26.742Z,20.60
2023-04-30T17:31:54.650Z,20.50
2023-04-30T17:34:21.802Z,20.50
2023-04-30T17:36:50.187Z,20.40
2023-04-30T17:39:18.977Z,20.40
2023-04-30T17:41:45.946Z,20.30
2023-04-30T17:44:13.142Z,20.30
2023-04-30T17:46:40.194Z,20.20
2023-04-30T17:49:07.713Z,20.20
2023-04-30T17:51:34.503Z,20.10
2023-04-30T17:54:01.419Z,20.10
2023-04-30T17:56:30.147Z,20.00
2023-04-30T17:58:57.412Z,20.00
2023-04-30T18:01:25.856Z,19.90
2023-04-30T18:03:53.641Z,19.80
2023-04-30T18:06:20.558Z,19.80
2023-04-30T18:08:47.446Z,19.70
2023-04-30T18:11:14.585Z,19.60
2023-04-30T18:13:41.473Z,19.60
2023-04-30T18:16:08.854Z,19.50
2023-04-30T18:18:35.709Z,19.50
2023-04-30T18:21:03.724Z,19.40
2023-04-30T18:23:30.623Z,19.30
2023-04-30T18:25:57.576Z,19.30
2023-04-30T18:28:24.692Z,19.20
2023-04-30T18:30:51.673Z,19.20
2023-04-30T18:33:18.589Z,19.10
2023-04-30T18:35:50.305Z,19.00
2023-04-30T18:38:18.371Z,18.90
2023-04-30T18:40:45.135Z,18.80
2023-04-30T18:43:14.034Z,18.80
2023-04-30T18:45:41.136Z,18.80
2023-04-30T18:48:08.265Z,18.70
2023-04-30T18:50:35.253Z,18.70
2023-04-30T18:53:02.262Z,18.60
2023-04-30T18:55:29.146Z,18.60
2023-04-30T18:57:56.469Z,18.60
2023-04-30T19:00:23.566Z,18.50
2023-04-30T19:02:51.329Z,18.40
2023-04-30T19:05:18.584Z,18.40
2023-04-30T19:07:45.512Z,18.30
2023-04-30T19:10:12.660Z,18.20
2023-04-30T19:12:39.747Z,18.20
2023-04-30T19:15:08.330Z,18.20
2023-04-30T19:17:35.574Z,18.10
2023-04-30T19:20:02.756Z,18.10
2023-04-30T19:22:29.709Z,18.10
2023-04-30T19:24:56.671Z,18.00
2023-04-30T19:27:23.634Z,18.00
2023-04-30T19:29:53.046Z,18.00
2023-04-30T19:32:21.050Z,17.90
2023-04-30T19:34:48.106Z,17.90
2023-04-30T19:37:15.115Z,17.90
2023-04-30T19:39:42.021Z,17.80
2023-04-30T19:42:09.113Z,17.80
2023-04-30T19:44:36.266Z,17.80
2023-04-30T19:47:04.274Z,17.80
2023-04-30T19:49:33.024Z,17.70
2023-04-30T19:51:59.970Z,17.70
2023-04-30T19:54:26.925Z,17.70
2023-04-30T19:56:54.558Z,17.70
2023-04-30T19:59:21.541Z,17.70
2023-04-30T20:01:48.705Z,17.60
2023-04-30T20:04:15.891Z,17.60
2023-04-30T20:06:43.549Z,17.60
2023-04-30T20:09:10.712Z,17.60
2023-04-30T20:11:37.861Z,17.50
2023-04-30T20:14:04.753Z,17.50
2023-04-30T20:16:32.285Z,17.50
2023-04-30T20:18:59.353Z,17.50
2023-04-30T20:21:26.306Z,17.50
2023-04-30T20:23:53.266Z,17.50
2023-04-30T20:26:21.561Z,17.50
2023-04-30T20:28:48.487Z,17.50
2023-04-30T20:31:15.512Z,17.50
2023-04-30T20:33:42.742Z,17.50
2023-04-30T20:36:09.776Z,17.50
2023-04-30T20:38:36.754Z,17.40
2023-04-30T20:41:03.758Z,17.50
2023-04-30T20:43:30.794Z,17.40
2023-04-30T20:46:00.951Z,17.40
2023-04-30T20:48:27.872Z,17.40
2023-04-30T20:50:54.913Z,17.40
2023-04-30T20:53:25.566Z,17.40
2023-04-30T20:55:54.035Z,17.40
2023-04-30T20:58:21.319Z,17.40
2023-04-30T21:00:50.114Z,17.40
2023-04-30T21:03:17.187Z,17.40
2023-04-30T21:05:48.596Z,17.40
2023-04-30T21:08:15.499Z,17.30
2023-04-30T21:10:42.401Z,17.30
2023-04-30T21:13:11.344Z,17.30
2023-04-30T21:15:40.026Z,17.20
2023-04-30T21:18:07.278Z,17.20
2023-04-30T21:20:34.514Z,17.20
2023-04-30T21:23:02.158Z,17.10
2023-04-30T21:25:29.196Z,17.10
2023-04-30T21:27:56.319Z,17.10
2023-04-30T21:30:25.840Z,17.00
2023-04-30T21:32:58.254Z,17.00
2023-04-30T21:35:25.832Z,17.00
2023-04-30T21:37:52.885Z,17.00
2023-04-30T21:40:20.754Z,17.00
2023-04-30T21:42:47.811Z,17.00
2023-04-30T21:45:14.919Z,16.90
2023-04-30T21:47:42.812Z,16.90
2023-04-30T21:50:10.614Z,16.90
2023-04-30T21:52:37.584Z,17.00
2023-04-30T21:55:04.936Z,16.90
2023-04-30T21:57:31.859Z,17.00
2023-04-30T22:00:00.350Z,16.90
2023-04-30T22:02:27.532Z,16.90
2023-04-30T22:04:55.363Z,17.00
2023-04-30T22:07:22.778Z,17.00
2023-04-30T22:09:51.646Z,17.00
2023-04-30T22:12:24.938Z,17.00
2023-04-30T22:14:55.420Z,16.90
2023-04-30T22:17:22.699Z,16.90
2023-04-30T22:19:49.662Z,16.90
2023-04-30T22:22:16.908Z,16.90
2023-04-30T22:24:43.964Z,16.90
2023-04-30T22:27:11.079Z,16.90
2023-04-30T22:29:38.085Z,16.80
2023-04-30T22:32:06.515Z,16.80
2023-04-30T22:34:40.282Z,16.80
2023-04-30T22:37:12.577Z,16.80
2023-04-30T22:39:39.547Z,16.70
2023-04-30T22:42:07.078Z,16.70
2023-04-30T22:44:34.163Z,16.70
2023-04-30T22:47:02.433Z,16.70
2023-04-30T22:49:31.646Z,16.70
2023-04-30T22:51:59.349Z,16.70
2023-04-30T22:54:26.503Z,16.80
2023-04-30T22:56:53.467Z,16.70
2023-04-30T22:59:20.444Z,16.80
2023-04-30T23:01:47.513Z,16.80
2023-04-30T23:04:14.561Z,16.80
2023-04-30T23:06:42.996Z,16.90
2023-04-30T23:09:10.185Z,16.90
2023-04-30T23:11:37.166Z,16.90
2023-04-30T23:14:04.721Z,16.90
2023-04-30T23:16:31.885Z,16.90
2023-04-30T23:18:59.090Z,16.90
2023-04-30T23:21:26.844Z,16.90
2023-04-30T23:23:53.843Z,16.90
2023-04-30T23:26:21.225Z,16.90
2023-04-30T23:28:48.277Z,17.00
2023-04-30T23:31:15.299Z,16.90
2023-04-30T23:33:43.081Z,16.90
2023-04-30T23:36:10.303Z,17.00
2023-04-30T23:38:37.226Z,17.00
2023-04-30T23:41:04.155Z,17.00
2023-04-30T23:43:32.747Z,17.00
2023-04-30T23:46:00.301Z,17.00
2023-04-30T23:48:27.351Z,16.90
2023-04-30T23:51:02.017Z,16.90
2023-04-30T23:53:29.149Z,16.90
2023-04-30T23:55:57.891Z,17.00
2023-04-30T23:58:31.643Z,17.00
